Time;durP1;ratioP1;P1;durP2;ratioP2;P2;SDS_P1;SDS_P2;PMS_P1;PMS_P2;Temp;Humidity;BMP_temperature;BMP_pressure;BME280_temperature;BME280_humidity;BME280_pressure;Samples;Min_cycle;Max_cycle;Signal;HPM_P1;HPM_P2
2022/12/28 00:00:00;;;;;;;4.93;2.10;;;5.80;99.90;;;;;;4989417;28;20199;-67
2022/12/28 00:02:29;;;;;;;3.90;1.57;;;5.70;99.90;;;;;;5001922;28;20202;-68
2022/12/28 00:04:56;;;;;;;7.73;1.90;;;5.70;99.90;;;;;;5000622;28;20209;-65
2022/12/28 00:07:23;;;;;;;7.23;2.00;;;5.70;99.90;;;;;;4978478;28;20232;-68
2022/12/28 00:09:49;;;;;;;5.50;1.83;;;5.70;99.90;;;;;;4988171;28;20807;-66
2022/12/28 00:12:16;;;;;;;13.10;2.77;;;5.80;99.90;;;;;;4997837;28;20791;-65
2022/12/28 00:14:43;;;;;;;3.80;1.90;;;5.80;99.90;;;;;;4984935;28;20255;-65
2022/12/28 00:17:09;;;;;;;5.93;1.97;;;5.80;99.90;;;;;;4997624;28;20229;-65
2022/12/28 00:19:38;;;;;;;4.37;1.90;;;5.70;99.90;;;;;;4989403;28;20644;-66
2022/12/28 00:22:04;;;;;;;3.60;2.00;;;5.80;99.90;;;;;;4999834;28;20205;-66
2022/12/28 00:24:31;;;;;;;4.50;1.60;;;5.80;99.90;;;;;;4963421;28;20425;-67
2022/12/28 00:26:58;;;;;;;4.37;1.90;;;5.80;99.90;;;;;;4997806;28;20220;-66
2022/12/28 00:29:25;;;;;;;3.57;1.63;;;5.80;99.90;;;;;;4988971;28;20226;-66
2022/12/28 00:31:52;;;;;;;5.20;2.00;;;5.80;99.90;;;;;;5004470;28;20225;-66
2022/12/28 00:34:18;;;;;;;6.73;1.70;;;5.80;99.90;;;;;;5005380;28;20215;-66
2022/12/28 00:36:50;;;;;;;5.83;1.50;;;5.80;99.90;;;;;;5002429;28;20219;-66
2022/12/28 00:39:17;;;;;;;3.93;1.67;;;5.80;99.90;;;;;;4975853;28;20216;-66
2022/12/28 00:41:44;;;;;;;9.87;2.00;;;5.80;99.90;;;;;;4991572;28;20234;-66
2022/12/28 00:44:11;;;;;;;3.70;2.00;;;5.80;99.90;;;;;;5005676;28;20199;-66
2022/12/28 00:46:38;;;;;;;4.33;1.70;;;5.80;99.90;;;;;;4991560;28;20683;-66
2022/12/28 00:49:05;;;;;;;6.47;1.70;;;5.80;99.90;;;;;;5007678;28;20232;-66
2022/12/28 00:51:32;;;;;;;3.90;1.60;;;5.80;99.90;;;;;;5000439;28;20745;-66
2022/12/28 00:54:00;;;;;;;5.60;2.00;;;5.80;99.90;;;;;;5008188;28;20202;-66
2022/12/28 00:56:27;;;;;;;5.60;2.03;;;5.80;99.90;;;;;;4956997;28;20745;-66
2022/12/28 00:58:57;;;;;;;8.37;2.03;;;6.00;99.90;;;;;;5004022;28;20218;-66
2022/12/28 01:01:24;;;;;;;4.87;1.63;;;5.80;99.90;;;;;;4989695;28;20302;-66
2022/12/28 01:03:51;;;;;;;5.77;1.57;;;5.80;99.90;;;;;;5004780;28;20202;-65
2022/12/28 01:06:19;;;;;;;3.43;1.87;;;5.80;99.90;;;;;;5001877;28;20249;-66
2022/12/28 01:08:47;;;;;;;2.47;1.47;;;5.80;99.90;;;;;;5006443;28;20224;-66
2022/12/28 01:11:18;;;;;;;3.97;1.70;;;5.80;99.90;;;;;;4976069;28;20213;-65
2022/12/28 01:13:45;;;;;;;4.17;1.60;;;5.80;99.90;;;;;;4986162;28;20198;-66
2022/12/28 01:16:13;;;;;;;3.27;1.77;;;5.80;99.90;;;;;;4990094;28;20202;-65
2022/12/28 01:18:40;;;;;;;5.30;1.93;;;5.80;99.90;;;;;;4996762;28;20237;-65
2022/12/28 01:21:12;;;;;;;6.37;1.53;;;5.80;99.90;;;;;;5005803;28;20198;-66
2022/12/28 01:23:39;;;;;;;4.03;1.70;;;5.80;99.90;;;;;;5004818;28;20833;-66
2022/12/28 01:26:06;;;;;;;4.33;2.03;;;5.80;99.90;;;;;;4980095;28;20221;-67
2022/12/28 01:28:35;;;;;;;2.37;1.60;;;5.80;99.90;;;;;;4970177;28;20669;-67
2022/12/28 01:31:06;;;;;;;4.07;1.93;;;5.80;99.90;;;;;;4988586;28;20672;-67
2022/12/28 01:33:33;;;;;;;3.50;1.90;;;5.80;99.90;;;;;;4981085;28;20210;-66
2022/12/28 01:36:05;;;;;;;2.90;1.70;;;5.80;99.90;;;;;;5000843;28;20198;-66
2022/12/28 01:38:31;;;;;;;6.77;2.27;;;5.80;99.90;;;;;;4999696;28;20209;-67
2022/12/28 01:40:58;;;;;;;5.17;1.90;;;5.70;99.90;;;;;;5005754;28;20796;-66
2022/12/28 01:43:38;;;;;;;4.40;1.77;;;5.70;99.90;;;;;;4967353;28;20714;-66
2022/12/28 01:46:06;;;;;;;4.67;1.80;;;5.70;99.90;;;;;;5000407;28;20486;-66
2022/12/28 01:48:34;;;;;;;4.13;1.73;;;5.70;99.90;;;;;;4978857;28;20374;-67
2022/12/28 01:51:01;;;;;;;1.60;1.47;;;5.70;99.90;;;;;;4996441;28;20242;-66
2022/12/28 01:53:28;;;;;;;4.43;2.67;;;5.70;99.90;;;;;;5002983;28;20193;-66
2022/12/28 01:55:55;;;;;;;6.83;1.97;;;5.70;99.90;;;;;;5005754;28;20199;-66
2022/12/28 01:58:25;;;;;;;2.83;1.80;;;5.70;99.90;;;;;;4977303;28;20302;-66
2022/12/28 02:00:53;;;;;;;4.23;1.87;;;5.70;99.90;;;;;;5003003;28;20209;-66
2022/12/28 02:03:24;;;;;;;4.83;1.90;;;5.60;99.90;;;;;;4996134;28;20225;-66
2022/12/28 02:05:53;;;;;;;7.27;2.07;;;5.60;99.90;;;;;;5003674;28;20317;-66
2022/12/28 02:08:26;;;;;;;5.57;1.57;;;5.60;99.90;;;;;;5004704;28;20292;-66
2022/12/28 02:10:53;;;;;;;4.77;1.73;;;5.60;99.90;;;;;;5004345;28;20204;-66
2022/12/28 02:13:22;;;;;;;7.13;2.10;;;5.60;99.90;;;;;;4977547;28;20259;-66
2022/12/28 02:15:49;;;;;;;2.67;2.03;;;5.60;99.90;;;;;;5002385;28;20231;-66
2022/12/28 02:18:19;;;;;;;5.23;2.20;;;5.60;99.90;;;;;;5004017;28;20213;-67
2022/12/28 02:21:17;;;;;;;2.93;2.00;;;5.60;99.90;;;;;;4995765;28;20733;-66
2022/12/28 02:24:10;;;;;;;5.50;2.53;;;5.60;99.90;;;;;;5005234;28;20203;-67
2022/12/28 02:26:51;;;;;;;2.90;2.00;;;5.60;99.90;;;;;;4998474;28;20222;-66
2022/12/28 02:29:53;;;;;;;3.03;1.87;;;5.60;99.90;;;;;;4972156;28;20276;-66
2022/12/28 02:32:32;;;;;;;6.10;2.60;;;5.60;99.90;;;;;;5000747;28;20200;-66
2022/12/28 02:35:05;;;;;;;3.27;2.20;;;5.60;99.90;;;;;;4995269;28;20210;-66
2022/12/28 02:37:35;;;;;;;6.83;2.57;;;5.50;99.90;;;;;;4999464;28;20226;-66
2022/12/28 02:40:07;;;;;;;6.83;2.43;;;5.60;99.90;;;;;;5001679;28;20204;-65
2022/12/28 02:42:36;;;;;;;4.40;2.27;;;5.50;99.90;;;;;;5001126;28;20210;-65
2022/12/28 02:50:44;;;;;;;6.77;2.57;;;5.50;99.90;;;;;;4988239;28;20284;-66
2022/12/28 02:53:33;;;;;;;6.20;2.57;;;5.50;99.90;;;;;;5003719;28;20225;-66
2022/12/28 02:56:09;;;;;;;7.13;2.20;;;5.50;99.90;;;;;;5001241;28;20201;-66
2022/12/28 02:59:11;;;;;;;3.80;2.17;;;5.50;99.90;;;;;;5005721;28;20210;-66
2022/12/28 03:02:09;;;;;;;4.83;2.50;;;5.60;99.90;;;;;;4967845;28;20213;-66
2022/12/28 03:04:47;;;;;;;3.23;2.30;;;5.40;99.90;;;;;;4999953;28;20236;-66
2022/12/28 03:10:14;;;;;;;4.63;2.40;;;5.50;99.90;;;;;;5002395;28;21141;-67
2022/12/28 03:12:48;;;;;;;5.80;2.47;;;5.50;99.90;;;;;;5000729;28;20222;-66
2022/12/28 03:15:28;;;;;;;3.40;2.40;;;5.50;99.90;;;;;;5003763;28;20208;-67
2022/12/28 03:31:51;;;;;;;6.23;2.30;;;5.60;99.90;;;;;;4975722;28;20734;-68
2022/12/28 03:34:19;;;;;;;3.83;2.40;;;5.50;99.90;;;;;;5000694;28;20676;-67
2022/12/28 03:36:54;;;;;;;4.80;2.07;;;5.50;99.90;;;;;;4998349;28;20213;-67
2022/12/28 03:39:31;;;;;;;4.60;2.63;;;5.50;99.90;;;;;;5004449;28;20207;-67
2022/12/28 03:44:50;;;;;;;6.40;2.57;;;5.50;99.90;;;;;;4997437;28;20251;-66
2022/12/28 03:47:21;;;;;;;2.87;1.90;;;5.60;99.90;;;;;;4991363;28;21323;-68
2022/12/28 03:49:49;;;;;;;3.53;1.70;;;5.70;99.90;;;;;;4981714;28;20255;-67
2022/12/28 03:52:17;;;;;;;4.23;2.23;;;5.60;99.90;;;;;;5000467;28;20199;-66
2022/12/28 03:54:44;;;;;;;5.77;2.10;;;5.70;99.90;;;;;;4984160;28;20991;-67
2022/12/28 03:57:10;;;;;;;7.67;2.60;;;5.70;99.90;;;;;;5000178;28;20218;-67
2022/12/28 03:59:37;;;;;;;4.43;2.40;;;5.70;99.90;;;;;;5001821;28;20202;-67
2022/12/28 04:02:04;;;;;;;4.63;2.30;;;5.70;99.90;;;;;;5001348;28;20208;-67
2022/12/28 04:04:31;;;;;;;3.80;2.30;;;5.70;99.90;;;;;;4969786;28;20226;-67
2022/12/28 04:06:59;;;;;;;7.13;2.90;;;5.70;99.90;;;;;;4997442;28;20254;-67
2022/12/28 04:09:25;;;;;;;2.93;2.47;;;5.70;99.90;;;;;;4991069;28;20738;-67
2022/12/28 04:11:52;;;;;;;5.70;2.40;;;5.70;99.90;;;;;;5001472;28;20604;-67
2022/12/28 04:14:19;;;;;;;3.20;2.50;;;5.70;99.90;;;;;;5002324;28;21016;-67
2022/12/28 04:16:46;;;;;;;3.43;2.73;;;5.70;99.90;;;;;;4997346;28;20591;-67
2022/12/28 04:19:12;;;;;;;6.80;2.77;;;5.70;99.90;;;;;;4972530;28;20241;-67
2022/12/28 04:21:39;;;;;;;7.23;2.80;;;5.70;99.90;;;;;;4992710;28;20205;-67
2022/12/28 04:24:07;;;;;;;3.47;2.60;;;5.80;99.90;;;;;;4986680;28;20207;-68
2022/12/28 04:26:34;;;;;;;6.93;3.10;;;5.80;99.90;;;;;;4995620;28;20194;-67
2022/12/28 04:29:01;;;;;;;4.10;2.93;;;5.80;99.90;;;;;;4998192;28;20233;-67
2022/12/28 04:31:29;;;;;;;5.23;2.87;;;5.80;99.90;;;;;;5001838;28;20203;-67
2022/12/28 04:33:57;;;;;;;3.83;2.73;;;5.80;99.90;;;;;;4972921;28;20230;-67
2022/12/28 04:36:24;;;;;;;5.43;3.17;;;5.80;99.90;;;;;;4985848;28;20270;-67
2022/12/28 04:38:50;;;;;;;5.23;3.10;;;5.90;99.90;;;;;;4993730;28;20699;-67
2022/12/28 04:41:19;;;;;;;3.97;3.30;;;5.80;99.90;;;;;;4982778;28;20202;-67
2022/12/28 04:43:45;;;;;;;5.53;3.13;;;5.80;99.90;;;;;;4976402;28;20205;-67
2022/12/28 04:46:15;;;;;;;4.70;3.50;;;5.90;99.90;;;;;;4995383;28;20656;-67
2022/12/28 04:48:42;;;;;;;4.20;2.93;;;5.90;99.90;;;;;;4959325;28;20928;-68
2022/12/28 04:51:10;;;;;;;8.30;3.47;;;5.90;99.90;;;;;;5001093;28;20227;-67
2022/12/28 04:53:37;;;;;;;6.00;3.97;;;5.90;99.90;;;;;;4990604;28;20217;-67
2022/12/28 04:56:05;;;;;;;5.57;3.37;;;6.00;99.90;;;;;;4987736;28;20739;-67
2022/12/28 04:58:33;;;;;;;7.07;4.13;;;5.90;99.90;;;;;;4998276;28;20214;-68
2022/12/28 05:01:04;;;;;;;6.63;3.83;;;6.00;99.90;;;;;;4997562;28;20202;-67
2022/12/28 05:03:30;;;;;;;7.50;4.27;;;6.00;99.90;;;;;;5003387;28;20202;-68
2022/12/28 05:06:01;;;;;;;4.17;3.37;;;6.00;99.90;;;;;;4978871;28;20210;-68
2022/12/28 05:08:27;;;;;;;5.50;4.00;;;6.00;99.90;;;;;;5000609;28;20214;-69
2022/12/28 05:10:54;;;;;;;4.63;3.77;;;6.00;99.90;;;;;;4990730;28;20740;-68
2022/12/28 05:13:21;;;;;;;5.43;3.87;;;6.00;99.90;;;;;;5001185;28;20202;-68
2022/12/28 05:15:49;;;;;;;4.40;3.20;;;6.00;99.90;;;;;;4993323;28;20200;-67
2022/12/28 05:18:16;;;;;;;9.73;3.80;;;6.10;99.90;;;;;;5003483;28;20205;-67
2022/12/28 05:20:43;;;;;;;3.50;3.20;;;6.10;99.90;;;;;;4977419;28;20754;-72
2022/12/28 05:23:10;;;;;;;4.40;3.97;;;6.10;99.90;;;;;;5003390;28;20198;-67
2022/12/28 05:25:36;;;;;;;5.30;4.10;;;6.10;99.90;;;;;;4988093;28;20226;-67
2022/12/28 05:28:04;;;;;;;7.80;3.97;;;6.20;99.90;;;;;;5003276;28;20209;-67
2022/12/28 05:30:30;;;;;;;6.13;3.87;;;6.20;99.90;;;;;;5000173;28;20904;-68
2022/12/28 05:32:59;;;;;;;5.73;3.60;;;6.10;99.90;;;;;;5003253;28;20768;-67
2022/12/28 05:35:26;;;;;;;3.80;3.23;;;6.10;99.90;;;;;;4970510;28;20225;-68
2022/12/28 05:37:53;;;;;;;4.13;3.53;;;6.20;99.90;;;;;;4997546;28;20292;-67
2022/12/28 05:40:20;;;;;;;3.87;3.23;;;6.20;99.90;;;;;;5006253;28;20288;-67
2022/12/28 05:42:46;;;;;;;5.53;3.77;;;6.30;99.90;;;;;;4977276;28;21450;-68
2022/12/28 05:45:13;;;;;;;4.27;3.70;;;6.30;99.90;;;;;;5003727;28;20210;-67
2022/12/28 05:47:40;;;;;;;3.50;3.20;;;6.40;99.90;;;;;;5001123;28;20213;-67
2022/12/28 05:50:08;;;;;;;4.33;3.07;;;6.30;99.90;;;;;;5004031;28;20233;-67
2022/12/28 05:52:35;;;;;;;4.40;3.83;;;6.40;99.90;;;;;;4975551;28;20245;-67
2022/12/28 05:55:02;;;;;;;4.80;3.63;;;6.40;99.90;;;;;;4987482;28;24172;-68
2022/12/28 05:57:29;;;;;;;6.17;3.20;;;6.40;99.90;;;;;;4987028;28;20257;-68
2022/12/28 05:59:55;;;;;;;4.80;3.60;;;6.30;99.90;;;;;;4996242;28;20202;-68
2022/12/28 06:02:26;;;;;;;4.03;3.30;;;6.30;99.90;;;;;;4994408;28;20225;-68
2022/12/28 06:04:53;;;;;;;3.70;3.30;;;6.40;99.90;;;;;;5002666;28;20662;-68
2022/12/28 06:07:21;;;;;;;3.43;3.13;;;6.40;99.90;;;;;;4968643;28;20214;-69
2022/12/28 06:09:48;;;;;;;3.47;3.17;;;6.40;99.90;;;;;;4989924;28;20226;-68
2022/12/28 06:12:15;;;;;;;3.43;2.80;;;6.50;99.90;;;;;;4985836;28;20742;-68
2022/12/28 06:14:42;;;;;;;3.33;2.80;;;6.50;99.90;;;;;;5001097;28;20218;-68
2022/12/28 06:17:08;;;;;;;4.03;3.13;;;6.60;99.90;;;;;;4995229;28;20577;-69
2022/12/28 06:19:35;;;;;;;3.23;2.73;;;6.60;99.90;;;;;;4995449;28;20220;-68
2022/12/28 06:22:02;;;;;;;2.80;2.50;;;6.60;99.90;;;;;;4978433;28;20211;-67
2022/12/28 06:24:30;;;;;;;2.80;2.60;;;6.60;99.90;;;;;;4976490;28;20508;-69
2022/12/28 06:26:57;;;;;;;3.53;2.33;;;6.60;99.90;;;;;;5001986;28;20200;-66
2022/12/28 06:29:24;;;;;;;2.27;2.07;;;6.70;99.90;;;;;;4989172;28;20988;-66
2022/12/28 06:31:52;;;;;;;3.73;2.47;;;6.70;99.90;;;;;;5002145;28;20572;-68
2022/12/28 06:34:19;;;;;;;2.83;2.53;;;6.70;99.90;;;;;;4998956;28;20878;-68
2022/12/28 06:36:46;;;;;;;2.43;2.23;;;6.70;99.90;;;;;;4975137;28;20606;-68
2022/12/28 06:39:14;;;;;;;2.60;2.03;;;6.80;99.90;;;;;;4990045;28;20206;-68
2022/12/28 06:41:43;;;;;;;2.80;2.53;;;6.80;99.90;;;;;;5001736;28;20207;-69
2022/12/28 06:44:11;;;;;;;3.43;2.10;;;6.80;99.90;;;;;;4989717;28;20208;-68
2022/12/28 06:46:38;;;;;;;3.07;2.50;;;6.90;99.90;;;;;;5000401;28;20194;-68
2022/12/28 06:49:05;;;;;;;2.63;2.33;;;6.90;99.90;;;;;;5002099;28;20203;-68
2022/12/28 06:51:34;;;;;;;2.90;2.50;;;6.90;99.90;;;;;;5004897;28;20253;-68
2022/12/28 06:54:02;;;;;;;5.67;2.20;;;6.90;99.90;;;;;;4963064;28;21503;-69
2022/12/28 06:56:30;;;;;;;2.40;2.20;;;7.00;99.90;;;;;;5002851;28;20206;-68
2022/12/28 06:58:58;;;;;;;2.50;2.13;;;7.00;99.90;;;;;;4990543;28;20236;-68
2022/12/28 07:01:27;;;;;;;2.47;2.27;;;7.00;99.90;;;;;;5005014;28;20229;-68
2022/12/28 07:03:56;;;;;;;4.50;2.53;;;7.10;99.90;;;;;;5005160;28;20205;-69
2022/12/28 07:06:25;;;;;;;2.83;2.00;;;7.10;99.90;;;;;;4995662;28;20582;-69
2022/12/28 07:08:52;;;;;;;2.60;2.40;;;7.00;99.90;;;;;;4955401;28;20279;-68
2022/12/28 07:11:21;;;;;;;2.37;2.10;;;7.10;99.90;;;;;;4990660;28;20245;-68
2022/12/28 07:13:49;;;;;;;2.43;2.00;;;7.20;99.90;;;;;;4980348;28;20205;-69
2022/12/28 07:16:19;;;;;;;2.53;2.23;;;7.10;99.90;;;;;;4985896;28;20206;-69
2022/12/28 07:18:46;;;;;;;2.33;1.93;;;7.20;99.90;;;;;;4996287;28;20203;-68
2022/12/28 07:21:15;;;;;;;2.33;2.07;;;7.20;99.90;;;;;;4997883;28;20210;-68
2022/12/28 07:23:42;;;;;;;2.30;2.10;;;7.30;99.90;;;;;;4970396;28;21017;-69
2022/12/28 07:26:10;;;;;;;4.03;1.87;;;7.30;99.90;;;;;;4989580;28;20207;-69
2022/12/28 07:28:38;;;;;;;2.30;2.10;;;7.30;99.90;;;;;;4989332;28;20210;-69
2022/12/28 07:31:06;;;;;;;3.60;2.13;;;7.30;99.90;;;;;;4989632;28;20235;-69
2022/12/28 07:33:36;;;;;;;2.23;2.03;;;7.40;99.90;;;;;;4998274;28;20194;-69
2022/12/28 07:36:03;;;;;;;2.77;2.03;;;7.40;99.90;;;;;;4997368;28;20207;-69
2022/12/28 07:38:30;;;;;;;1.93;1.83;;;7.40;99.90;;;;;;4977492;28;20210;-69
2022/12/28 07:41:02;;;;;;;2.40;1.97;;;7.60;99.90;;;;;;5000833;28;20268;-68
2022/12/28 07:43:29;;;;;;;2.33;1.80;;;7.50;99.90;;;;;;4989231;28;20214;-69
2022/12/28 07:46:01;;;;;;;2.70;2.00;;;7.50;99.90;;;;;;4990564;28;20228;-68
2022/12/28 07:48:29;;;;;;;2.27;2.07;;;7.60;99.90;;;;;;5003919;28;20203;-68
2022/12/28 07:50:57;;;;;;;2.83;2.43;;;7.60;99.90;;;;;;4998647;28;20288;-69
2022/12/28 07:53:24;;;;;;;2.40;2.20;;;7.50;99.90;;;;;;5010341;28;20221;-68
2022/12/28 07:55:55;;;;;;;2.63;2.43;;;7.50;99.90;;;;;;4976468;28;20217;-68
2022/12/28 07:58:22;;;;;;;2.60;2.40;;;7.60;99.90;;;;;;4988900;28;20237;-69
2022/12/28 08:00:49;;;;;;;2.87;2.67;;;7.70;99.90;;;;;;4979058;28;20256;-68
2022/12/28 08:03:16;;;;;;;2.80;2.27;;;7.70;99.90;;;;;;5005084;28;20259;-69
2022/12/28 08:05:43;;;;;;;2.57;2.27;;;7.70;99.90;;;;;;5007571;28;20203;-68
2022/12/28 08:08:11;;;;;;;2.57;2.37;;;7.70;99.90;;;;;;4994711;28;20206;-69
2022/12/28 08:10:38;;;;;;;2.23;2.03;;;7.70;99.90;;;;;;4975864;28;20238;-69
2022/12/28 08:13:05;;;;;;;4.43;2.33;;;7.70;99.90;;;;;;4990768;28;20339;-69
2022/12/28 08:15:32;;;;;;;3.20;2.50;;;7.70;99.90;;;;;;4985499;28;20711;-69
2022/12/28 08:17:59;;;;;;;2.53;2.33;;;7.80;99.90;;;;;;4984712;28;20580;-69
2022/12/28 08:20:25;;;;;;;3.30;2.40;;;7.80;99.90;;;;;;4985886;28;21107;-69
2022/12/28 08:22:53;;;;;;;2.87;2.53;;;7.80;99.90;;;;;;4975266;28;20213;-69
2022/12/28 08:25:21;;;;;;;3.10;2.20;;;7.80;99.90;;;;;;4999465;28;20223;-68
2022/12/28 08:27:48;;;;;;;3.27;2.53;;;7.80;99.90;;;;;;4966554;28;20203;-69
2022/12/28 08:30:15;;;;;;;6.03;2.73;;;7.90;99.90;;;;;;4974484;28;20218;-68
2022/12/28 08:32:41;;;;;;;2.60;2.40;;;7.90;99.90;;;;;;4986471;28;20222;-68
2022/12/28 08:35:09;;;;;;;3.07;2.57;;;7.90;99.90;;;;;;4998190;28;20202;-69
2022/12/28 08:37:36;;;;;;;2.57;2.33;;;7.90;99.90;;;;;;4984499;28;20589;-69
2022/12/28 08:40:03;;;;;;;3.03;2.40;;;7.90;99.90;;;;;;4992652;28;20516;-69
2022/12/28 08:42:31;;;;;;;2.93;2.43;;;7.90;99.90;;;;;;4968062;28;20210;-69
2022/12/28 08:44:58;;;;;;;4.10;2.60;;;7.90;99.90;;;;;;4990997;28;20711;-69
2022/12/28 08:47:24;;;;;;;3.17;2.73;;;8.00;99.90;;;;;;4973878;28;20213;-69
2022/12/28 08:49:51;;;;;;;2.80;2.57;;;8.00;99.90;;;;;;5002009;28;21531;-68
2022/12/28 08:52:18;;;;;;;3.03;2.40;;;8.00;99.90;;;;;;4996725;28;20195;-69
2022/12/28 08:54:45;;;;;;;3.17;2.40;;;8.10;99.90;;;;;;4998423;28;20226;-69
2022/12/28 08:57:11;;;;;;;3.60;2.77;;;8.10;99.90;;;;;;4972288;28;20214;-69
2022/12/28 08:59:40;;;;;;;5.10;2.37;;;8.00;99.90;;;;;;4992258;28;21387;-69
2022/12/28 09:05:28;;;;;;;3.00;2.70;;;8.20;99.90;;;;;;4984805;23;21014;-69
2022/12/28 09:07:55;;;;;;;4.07;2.60;;;8.10;99.90;;;;;;4974096;28;20736;-68
2022/12/28 09:10:22;;;;;;;2.47;2.27;;;8.10;99.90;;;;;;4999937;28;20230;-68
2022/12/28 09:12:49;;;;;;;3.70;2.90;;;8.20;99.90;;;;;;4976564;28;20245;-68
2022/12/28 09:15:17;;;;;;;3.30;2.83;;;8.20;99.90;;;;;;4994473;28;20199;-68
2022/12/28 09:17:44;;;;;;;2.70;2.50;;;8.30;99.90;;;;;;4985850;28;20203;-68
2022/12/28 09:20:11;;;;;;;2.93;2.50;;;8.30;99.90;;;;;;5004097;28;20206;-69
2022/12/28 09:22:38;;;;;;;4.00;2.60;;;8.30;99.90;;;;;;5005317;28;20286;-69
2022/12/28 09:25:05;;;;;;;4.70;2.90;;;8.40;99.90;;;;;;4994279;28;20206;-68
2022/12/28 09:27:32;;;;;;;3.00;2.70;;;8.40;99.90;;;;;;4978053;28;20232;-69
2022/12/28 09:29:59;;;;;;;2.93;2.70;;;8.40;99.90;;;;;;5000392;28;20210;-69
2022/12/28 09:32:27;;;;;;;3.83;3.00;;;8.40;99.90;;;;;;4971272;28;20900;-69
2022/12/28 09:34:53;;;;;;;3.20;2.67;;;8.40;99.90;;;;;;5003302;28;20996;-69
2022/12/28 09:37:20;;;;;;;3.10;2.80;;;8.50;99.90;;;;;;4966107;28;21458;-68
2022/12/28 09:39:47;;;;;;;3.20;2.90;;;8.50;99.90;;;;;;4992467;28;20229;-68
2022/12/28 09:42:20;;;;;;;3.13;2.83;;;8.50;99.90;;;;;;4982833;28;20237;-68
2022/12/28 09:44:59;;;;;;;3.10;2.80;;;8.60;99.90;;;;;;4951428;28;20337;-69
2022/12/28 09:47:32;;;;;;;3.30;2.80;;;8.60;99.90;;;;;;4975559;28;20344;-69
2022/12/28 09:50:28;;;;;;;3.53;2.90;;;8.60;99.90;;;;;;4974139;28;20493;-69
2022/12/28 09:53:15;;;;;;;4.73;3.20;;;8.60;99.90;;;;;;4986245;28;20203;-69
2022/12/28 09:55:48;;;;;;;3.07;2.57;;;8.60;99.90;;;;;;4971846;28;20569;-69
2022/12/28 09:58:17;;;;;;;2.60;2.40;;;8.60;99.90;;;;;;4970811;28;20293;-69
2022/12/28 10:00:45;;;;;;;3.00;2.47;;;8.60;99.90;;;;;;4962912;28;20226;-69
2022/12/28 10:03:18;;;;;;;3.33;3.03;;;8.60;99.90;;;;;;4967331;28;20589;-69
2022/12/28 10:05:46;;;;;;;3.50;3.20;;;8.70;99.90;;;;;;4975290;28;20223;-69
2022/12/28 10:08:17;;;;;;;3.50;3.13;;;8.60;99.90;;;;;;4960415;28;20226;-68
2022/12/28 10:10:44;;;;;;;4.00;2.93;;;8.60;99.90;;;;;;4981190;28;20237;-68
2022/12/28 10:13:18;;;;;;;4.20;2.80;;;8.70;99.90;;;;;;4974783;28;20227;-68
2022/12/28 10:15:48;;;;;;;3.30;2.97;;;8.70;99.90;;;;;;4930875;28;20381;-68
2022/12/28 10:18:22;;;;;;;3.57;3.00;;;8.70;99.90;;;;;;4971193;28;20713;-68
2022/12/28 10:20:50;;;;;;;4.87;2.80;;;8.70;99.90;;;;;;4961692;28;20234;-69
2022/12/28 10:23:20;;;;;;;3.37;3.00;;;8.70;99.90;;;;;;4992287;28;20230;-68
2022/12/28 10:25:48;;;;;;;2.50;2.30;;;8.70;99.90;;;;;;4978860;28;20227;-69
2022/12/28 10:28:17;;;;;;;2.93;2.47;;;8.70;99.90;;;;;;4978130;28;20230;-69
2022/12/28 10:30:46;;;;;;;2.70;2.50;;;8.70;99.90;;;;;;4958593;28;20306;-69
2022/12/28 10:33:19;;;;;;;2.40;2.20;;;8.80;99.90;;;;;;4979444;28;20225;-69
2022/12/28 10:35:50;;;;;;;2.87;2.00;;;8.80;99.90;;;;;;4968731;28;20237;-69
2022/12/28 10:38:23;;;;;;;2.00;1.80;;;8.80;99.90;;;;;;4971450;28;20225;-69
2022/12/28 10:41:00;;;;;;;2.37;2.00;;;8.80;99.90;;;;;;4967298;28;20810;-69
2022/12/28 10:43:30;;;;;;;2.20;2.00;;;8.80;99.90;;;;;;4977365;28;20252;-70
2022/12/28 10:45:58;;;;;;;3.40;2.13;;;8.80;99.90;;;;;;4955038;28;20253;-72
2022/12/28 10:48:30;;;;;;;2.17;1.97;;;8.80;99.90;;;;;;4987687;28;20312;-69
2022/12/28 10:51:00;;;;;;;2.30;1.80;;;8.80;99.90;;;;;;4963329;28;20233;-70
2022/12/28 10:53:30;;;;;;;2.03;1.83;;;8.80;99.90;;;;;;4970640;28;20229;-69
2022/12/28 10:56:19;;;;;;;2.00;1.80;;;8.80;99.90;;;;;;4969100;28;20230;-67
2022/12/28 10:58:47;;;;;;;2.00;1.83;;;8.90;99.90;;;;;;4943270;28;20226;-68
2022/12/28 11:01:19;;;;;;;2.17;1.97;;;8.80;99.90;;;;;;4928031;28;20225;-68
2022/12/28 11:04:03;;;;;;;3.00;1.90;;;8.90;99.90;;;;;;4961993;28;20828;-68
2022/12/28 11:06:31;;;;;;;5.07;2.30;;;8.90;99.90;;;;;;4964053;28;20206;-67
2022/12/28 11:09:05;;;;;;;2.90;1.83;;;8.90;99.90;;;;;;4977450;28;20221;-68
2022/12/28 11:11:33;;;;;;;2.13;1.93;;;8.90;99.90;;;;;;4973674;28;20818;-68
2022/12/28 11:14:04;;;;;;;2.03;1.80;;;8.90;99.90;;;;;;4967605;28;20217;-68
2022/12/28 11:16:35;;;;;;;2.43;2.10;;;8.90;99.90;;;;;;4941634;28;20211;-68
2022/12/28 11:19:04;;;;;;;2.63;2.23;;;8.90;99.90;;;;;;4988753;28;20202;-68
2022/12/28 11:21:33;;;;;;;2.93;2.40;;;9.00;99.90;;;;;;4949960;28;20202;-68
2022/12/28 11:24:00;;;;;;;2.27;2.03;;;9.00;99.90;;;;;;4979671;28;20284;-68
2022/12/28 11:26:30;;;;;;;1.93;1.73;;;9.00;99.90;;;;;;4978810;28;20211;-68
2022/12/28 11:28:57;;;;;;;2.90;2.03;;;9.00;99.90;;;;;;4966262;28;23059;-68
2022/12/28 11:31:28;;;;;;;2.17;1.97;;;9.00;99.90;;;;;;4958194;28;20239;-68
2022/12/28 11:33:58;;;;;;;2.23;2.03;;;9.00;99.90;;;;;;4980240;28;21289;-68
2022/12/28 11:36:27;;;;;;;2.60;2.20;;;9.00;99.90;;;;;;4966998;28;20214;-68
2022/12/28 11:38:56;;;;;;;2.43;2.20;;;9.00;99.90;;;;;;4969874;28;20672;-68
2022/12/28 11:41:41;;;;;;;3.07;2.60;;;9.10;99.90;;;;;;4994651;28;20271;-69
2022/12/28 11:44:20;;;;;;;4.87;2.10;;;9.00;99.90;;;;;;4961791;28;20226;-68
2022/12/28 11:47:01;;;;;;;2.83;2.20;;;9.10;99.90;;;;;;4943558;23;20796;-68
2022/12/28 11:49:34;;;;;;;2.57;2.07;;;9.10;99.90;;;;;;4920371;28;20226;-69
2022/12/28 11:52:34;;;;;;;5.20;2.23;;;9.10;99.90;;;;;;4893559;28;20750;-69
2022/12/28 11:55:02;;;;;;;2.00;1.80;;;9.10;99.90;;;;;;4962852;28;20238;-69
2022/12/28 11:57:34;;;;;;;2.53;2.33;;;9.10;99.90;;;;;;4966011;28;20208;-68
2022/12/28 12:00:46;;;;;;;2.07;1.87;;;10.20;99.90;;;;;;4950863;28;20599;-67
2022/12/28 12:03:13;;;;;;;2.87;2.10;;;9.20;99.90;;;;;;4932496;28;20463;-69
2022/12/28 12:05:53;;;;;;;1.90;1.70;;;9.20;99.90;;;;;;4960004;28;21007;-69
2022/12/28 12:08:41;;;;;;;2.63;1.80;;;9.30;99.90;;;;;;4960013;28;20233;-69
2022/12/28 12:11:29;;;;;;;2.40;2.10;;;9.20;99.90;;;;;;4950853;28;20917;-69
2022/12/28 12:14:03;;;;;;;2.10;1.90;;;9.20;99.90;;;;;;4963944;28;20226;-69
2022/12/28 12:16:39;;;;;;;3.77;2.00;;;9.30;99.90;;;;;;4955561;28;20227;-69
2022/12/28 12:19:08;;;;;;;2.63;1.90;;;9.30;99.90;;;;;;4932941;28;20214;-69
2022/12/28 12:21:39;;;;;;;2.00;1.77;;;9.30;99.90;;;;;;4948497;28;20673;-69
2022/12/28 12:24:25;;;;;;;2.10;1.90;;;9.30;99.90;;;;;;4961966;28;20271;-69
2022/12/28 12:26:57;;;;;;;2.63;1.67;;;9.30;99.90;;;;;;4936020;28;20227;-69
2022/12/28 12:29:30;;;;;;;1.73;1.60;;;9.30;99.90;;;;;;4955932;28;20207;-68
2022/12/28 12:32:02;;;;;;;2.43;1.80;;;9.30;99.90;;;;;;4954758;28;20226;-69
2022/12/28 12:34:40;;;;;;;2.47;1.60;;;9.30;99.90;;;;;;4942409;23;20261;-68
2022/12/28 12:37:35;;;;;;;1.43;1.33;;;9.30;99.90;;;;;;4930595;28;21200;-67
2022/12/28 12:40:31;;;;;;;3.40;1.50;;;9.30;99.90;;;;;;4944109;28;20226;-68
2022/12/28 12:43:18;;;;;;;2.17;1.47;;;9.30;99.90;;;;;;4968586;28;20989;-68
2022/12/28 12:45:55;;;;;;;1.33;1.23;;;9.30;99.90;;;;;;4959005;28;20223;-67
2022/12/28 12:48:39;;;;;;;1.50;1.40;;;9.30;99.90;;;;;;4951267;28;20235;-70
2022/12/28 12:51:20;;;;;;;3.50;1.37;;;9.20;99.90;;;;;;4953709;28;22001;-68
2022/12/28 12:54:08;;;;;;;1.47;1.37;;;9.20;99.90;;;;;;4954441;28;21059;-68
2022/12/28 12:56:45;;;;;;;2.33;1.33;;;9.30;99.90;;;;;;4963723;28;20230;-68
2022/12/28 12:59:31;;;;;;;0.90;0.90;;;9.30;99.90;;;;;;4960153;28;20286;-70
2022/12/28 13:02:16;;;;;;;1.17;1.00;;;9.20;99.90;;;;;;4950955;28;20207;-68
2022/12/28 13:04:44;;;;;;;1.40;1.30;;;9.20;99.90;;;;;;4944676;28;20325;-67
2022/12/28 13:07:18;;;;;;;1.10;1.10;;;9.30;99.90;;;;;;4974008;28;20203;-68
2022/12/28 13:09:45;;;;;;;1.60;1.07;;;9.30;99.90;;;;;;4963317;28;20321;-68
2022/12/28 13:12:16;;;;;;;2.23;1.50;;;9.30;99.90;;;;;;4954926;28;20230;-68
2022/12/28 13:14:45;;;;;;;1.60;1.50;;;9.20;99.90;;;;;;4956466;28;20333;-68
2022/12/28 13:17:18;;;;;;;3.43;1.20;;;9.30;99.90;;;;;;4932382;28;21493;-68
2022/12/28 13:19:46;;;;;;;1.60;1.17;;;9.10;99.90;;;;;;4959400;28;20839;-68
2022/12/28 13:22:27;;;;;;;1.92;1.48;;;9.30;99.90;;;;;;4957229;28;20230;-68
2022/12/28 13:24:54;;;;;;;1.38;1.13;;;9.30;99.90;;;;;;4964902;28;20237;-68
2022/12/28 13:27:23;;;;;;;1.23;1.13;;;9.30;99.90;;;;;;4951137;28;20240;-68
2022/12/28 13:29:54;;;;;;;1.30;1.20;;;9.30;99.90;;;;;;4950638;28;20777;-69
2022/12/28 13:32:25;;;;;;;0.97;0.93;;;9.20;99.90;;;;;;4956165;28;20727;-70
2022/12/28 13:34:52;;;;;;;0.83;0.83;;;9.30;99.90;;;;;;4957066;28;20249;-69
2022/12/28 13:37:19;;;;;;;1.30;1.20;;;9.20;99.90;;;;;;4948604;28;20314;-69
2022/12/28 13:39:46;;;;;;;1.77;1.17;;;9.20;99.90;;;;;;4972644;28;20284;-69
2022/12/28 13:42:16;;;;;;;1.10;1.00;;;9.20;99.90;;;;;;4928151;28;20338;-69